createdAt,value
2023-01-25T00:02:19.398Z,102349.56
2023-01-25T00:04:46.146Z,102351.38
2023-01-25T00:07:12.832Z,102343.25
2023-01-25T00:09:39.391Z,102345.75
2023-01-25T00:12:06.148Z,102343.16
2023-01-25T00:14:32.883Z,102344.09
2023-01-25T00:16:59.470Z,102344.59
2023-01-25T00:19:26.128Z,102342.25
2023-01-25T00:21:52.962Z,102335.72
2023-01-25T00:24:22.883Z,102337.72
2023-01-25T00:26:49.895Z,102333.22
2023-01-25T00:29:17.663Z,102332.22
2023-01-25T00:32:02.459Z,102325.91
2023-01-25T00:34:44.905Z,102324.47
2023-01-25T00:37:29.744Z,102325.25
2023-01-25T00:39:57.670Z,102324.41
2023-01-25T00:42:24.351Z,102320.50
2023-01-25T00:44:51.196Z,102321.66
2023-01-25T00:47:19.872Z,102316.34
2023-01-25T00:49:46.812Z,102309.97
2023-01-25T00:52:14.156Z,102314.34
2023-01-25T00:54:40.960Z,102312.22
2023-01-25T00:57:08.659Z,102300.59
2023-01-25T00:59:35.602Z,102309.19
2023-01-25T01:02:02.898Z,102292.75
2023-01-25T01:04:30.651Z,102294.16
2023-01-25T01:06:57.551Z,102301.72
2023-01-25T01:09:24.609Z,102304.69
2023-01-25T01:11:52.887Z,102299.28
2023-01-25T01:14:20.690Z,102294.59
2023-01-25T01:16:47.958Z,102291.25
2023-01-25T01:19:14.946Z,102290.41
2023-01-25T01:21:42.165Z,102282.44
2023-01-25T01:24:10.517Z,102285.63
2023-01-25T01:26:37.545Z,102287.59
2023-01-25T01:29:04.616Z,102287.81
2023-01-25T01:31:31.530Z,102286.09
2023-01-25T01:34:13.187Z,102293.84
2023-01-25T01:36:40.029Z,102297.03
2023-01-25T01:39:06.867Z,102288.28
2023-01-25T01:41:33.473Z,102289.94
2023-01-25T01:44:00.211Z,102284.09
2023-01-25T01:46:37.292Z,102296.50
2023-01-25T01:49:22.310Z,102290.50
2023-01-25T01:51:54.283Z,102292.53
2023-01-25T01:54:49.875Z,102287.81
2023-01-25T01:57:19.886Z,102288.81
2023-01-25T01:59:52.653Z,102286.06
2023-01-25T02:02:19.894Z,102288.72
2023-01-25T02:04:49.050Z,102283.41
2023-01-25T02:07:21.085Z,102289.88
2023-01-25T02:09:50.402Z,102280.28
2023-01-25T02:12:18.327Z,102281.66
2023-01-25T02:14:52.238Z,102286.28
2023-01-25T02:17:37.494Z,102281.53
2023-01-25T02:20:17.426Z,102291.47
2023-01-25T02:23:00.201Z,102279.09
2023-01-25T02:25:28.085Z,102275.34
2023-01-25T02:28:02.051Z,102277.31
2023-01-25T02:30:28.917Z,102269.66
2023-01-25T02:32:55.601Z,102270.50
2023-01-25T02:35:35.984Z,102266.69
2023-01-25T02:38:03.769Z,102274.44
2023-01-25T02:40:33.463Z,102265.31
2023-01-25T02:43:03.084Z,102265.47
2023-01-25T02:45:32.739Z,102265.28
2023-01-25T02:47:59.517Z,102259.34
2023-01-25T02:50:26.331Z,102258.56
2023-01-25T02:52:53.051Z,102251.34
2023-01-25T02:55:19.825Z,102266.06
2023-01-25T02:57:47.159Z,102262.00
2023-01-25T03:00:15.824Z,102258.66
2023-01-25T03:02:44.494Z,102259.09
2023-01-25T03:05:11.375Z,102256.81
2023-01-25T03:07:39.974Z,102252.03
2023-01-25T03:10:08.749Z,102249.00
2023-01-25T03:12:36.132Z,102250.13
2023-01-25T03:15:03.414Z,102249.84
2023-01-25T03:17:31.215Z,102257.72
2023-01-25T03:19:57.845Z,102256.56
2023-01-25T03:22:25.722Z,102249.38
2023-01-25T03:24:52.434Z,102247.03
2023-01-25T03:27:19.375Z,102248.38
2023-01-25T03:30:03.222Z,102242.22
2023-01-25T03:32:32.835Z,102247.19
2023-01-25T03:35:05.624Z,102245.03
2023-01-25T03:37:34.286Z,102245.88
2023-01-25T03:40:01.181Z,102246.88
2023-01-25T03:42:28.589Z,102255.31
2023-01-25T03:44:57.468Z,102248.16
2023-01-25T03:47:24.238Z,102254.84
2023-01-25T03:49:51.590Z,102244.44
2023-01-25T03:52:19.170Z,102247.56
2023-01-25T03:54:46.846Z,102241.72
2023-01-25T03:57:13.896Z,102243.06
2023-01-25T03:59:54.821Z,102246.41
2023-01-25T04:02:21.584Z,102243.44
2023-01-25T04:04:48.259Z,102242.22
2023-01-25T04:07:17.564Z,102248.47
2023-01-25T04:09:44.427Z,102242.53
2023-01-25T04:12:12.024Z,102246.50
2023-01-25T04:14:44.679Z,102239.03
2023-01-25T04:17:17.546Z,102234.88
2023-01-25T04:19:53.608Z,102238.97
2023-01-25T04:22:24.853Z,102242.69
2023-01-25T04:24:54.379Z,102237.44
2023-01-25T04:27:21.198Z,102238.13
2023-01-25T04:29:56.027Z,102230.53
2023-01-25T04:32:25.065Z,102237.75
2023-01-25T04:34:52.591Z,102228.88
2023-01-25T04:37:22.566Z,102230.13
2023-01-25T04:39:58.272Z,102228.56
2023-01-25T04:42:26.285Z,102225.06
2023-01-25T04:44:56.158Z,102232.28
2023-01-25T04:47:23.392Z,102230.91
2023-01-25T04:49:50.569Z,102232.91
2023-01-25T04:52:20.725Z,102237.75
2023-01-25T04:54:47.498Z,102231.00
2023-01-25T04:57:14.223Z,102231.13
2023-01-25T04:59:46.485Z,102232.22
2023-01-25T05:02:13.354Z,102229.00
2023-01-25T05:04:40.140Z,102228.16
2023-01-25T05:07:07.416Z,102223.94
2023-01-25T05:09:34.097Z,102218.75
2023-01-25T05:12:01.012Z,102219.50
2023-01-25T05:14:37.088Z,102216.78
2023-01-25T05:17:07.424Z,102222.16
2023-01-25T05:19:34.464Z,102227.19
2023-01-25T05:22:07.534Z,102218.53
2023-01-25T05:24:45.142Z,102207.34
2023-01-25T05:27:17.204Z,102209.34
2023-01-25T05:29:53.030Z,102209.41
2023-01-25T05:32:23.589Z,102208.72
2023-01-25T05:34:50.644Z,102201.50
2023-01-25T05:37:19.907Z,102204.31
2023-01-25T05:39:53.988Z,102193.69
2023-01-25T05:42:20.847Z,102190.41
2023-01-25T05:44:48.151Z,102192.25
2023-01-25T05:47:17.408Z,102181.22
2023-01-25T05:49:44.413Z,102178.94
2023-01-25T05:52:17.767Z,102172.88
2023-01-25T05:54:44.657Z,102182.59
2023-01-25T05:57:15.457Z,102181.59
2023-01-25T05:59:42.475Z,102177.28
2023-01-25T06:02:11.872Z,102174.25
2023-01-25T06:04:39.207Z,102175.00
2023-01-25T06:07:07.212Z,102171.81
2023-01-25T06:09:36.012Z,102170.06
2023-01-25T06:12:04.032Z,102169.31
2023-01-25T06:14:30.638Z,102166.13
2023-01-25T06:16:57.916Z,102171.50
2023-01-25T06:19:31.890Z,102166.81
2023-01-25T06:22:19.516Z,102161.34
2023-01-25T06:24:46.129Z,102170.34
2023-01-25T06:27:12.783Z,102179.63
2023-01-25T06:29:39.394Z,102182.97
2023-01-25T06:32:06.303Z,102184.19
2023-01-25T06:34:33.050Z,102185.47
2023-01-25T06:36:59.789Z,102189.66
2023-01-25T06:39:26.449Z,102181.69
2023-01-25T06:41:53.131Z,102179.31
2023-01-25T06:44:19.796Z,102187.69
2023-01-25T06:46:46.506Z,102183.81
2023-01-25T06:49:13.147Z,102186.03
2023-01-25T06:51:39.752Z,102189.06
2023-01-25T06:54:06.347Z,102190.88
2023-01-25T06:56:33.005Z,102186.31
2023-01-25T06:58:59.620Z,102191.09
2023-01-25T07:01:30.440Z,102190.25
2023-01-25T07:03:59.157Z,102177.38
2023-01-25T07:06:31.202Z,102180.69
2023-01-25T07:09:03.170Z,102175.66
2023-01-25T07:11:29.831Z,102181.09
2023-01-25T07:13:56.440Z,102169.94
2023-01-25T07:16:23.011Z,102167.38
2023-01-25T07:18:49.663Z,102169.44
2023-01-25T07:21:24.461Z,102165.03
2023-01-25T07:23:52.162Z,102169.50
2023-01-25T07:26:24.235Z,102165.13
2023-01-25T07:28:51.927Z,102170.13
2023-01-25T07:31:20.662Z,102174.91
2023-01-25T07:33:49.502Z,102167.00
2023-01-25T07:36:16.436Z,102170.97
2023-01-25T07:38:43.202Z,102164.31
2023-01-25T07:41:10.154Z,102170.59
2023-01-25T07:43:36.944Z,102167.31
2023-01-25T07:46:11.255Z,102166.84
2023-01-25T07:48:38.938Z,102167.41
2023-01-25T07:51:22.392Z,102161.16
2023-01-25T07:54:04.355Z,102170.75
2023-01-25T07:56:33.481Z,102181.97
2023-01-25T07:59:04.412Z,102171.50
2023-01-25T08:01:34.142Z,102185.56
2023-01-25T08:04:01.994Z,102178.78
2023-01-25T08:06:35.712Z,102175.47
2023-01-25T08:09:20.798Z,102171.97
2023-01-25T08:11:49.236Z,102170.50
2023-01-25T08:14:15.998Z,102175.91
2023-01-25T08:16:42.706Z,102174.63
2023-01-25T08:19:11.020Z,102173.25
2023-01-25T08:21:37.784Z,102172.16
2023-01-25T08:24:06.573Z,102169.22
2023-01-25T08:26:34.937Z,102170.66
2023-01-25T08:29:02.052Z,102164.72
2023-01-25T08:31:30.926Z,102167.69
2023-01-25T08:33:58.367Z,102163.09
2023-01-25T08:36:25.799Z,102162.00
2023-01-25T08:38:58.335Z,102163.84
2023-01-25T08:41:26.003Z,102159.34
2023-01-25T08:43:54.525Z,102150.69
2023-01-25T08:46:22.261Z,102154.50
2023-01-25T08:48:49.043Z,102154.31
2023-01-25T08:51:17.873Z,102151.22
2023-01-25T08:53:44.465Z,102151.75
2023-01-25T08:56:13.511Z,102151.66
2023-01-25T08:58:42.890Z,102147.41
2023-01-25T09:01:11.904Z,102143.47
2023-01-25T09:03:41.612Z,102143.09
2023-01-25T09:06:09.394Z,102140.50
2023-01-25T09:08:37.795Z,102141.53
2023-01-25T09:11:07.729Z,102132.44
2023-01-25T09:13:34.479Z,102129.44
2023-01-25T09:16:03.329Z,102129.13
2023-01-25T09:18:31.208Z,102135.72
2023-01-25T09:20:58.258Z,102135.59
2023-01-25T09:23:25.253Z,102136.28
2023-01-25T09:26:00.767Z,102130.66
2023-01-25T09:28:29.949Z,102130.66
2023-01-25T09:31:19.887Z,102133.75
2023-01-25T09:34:09.510Z,102137.09
2023-01-25T09:36:36.675Z,102133.53
2023-01-25T09:39:03.629Z,102136.75
2023-01-25T09:41:42.386Z,102134.81
2023-01-25T09:44:38.736Z,102132.84
2023-01-25T09:47:17.126Z,102137.00
2023-01-25T09:50:12.026Z,102139.81
2023-01-25T09:53:06.758Z,102142.19
2023-01-25T09:55:33.732Z,102140.03
2023-01-25T09:58:02.638Z,102137.81
2023-01-25T10:00:44.724Z,102134.00
2023-01-25T10:03:23.360Z,102130.66
2023-01-25T10:05:54.096Z,102131.19
2023-01-25T10:08:32.507Z,102129.72
2023-01-25T10:11:12.188Z,102123.25
2023-01-25T10:13:38.768Z,102126.72
2023-01-25T10:16:24.561Z,102119.31
2023-01-25T10:19:01.197Z,102116.00
2023-01-25T10:21:35.551Z,102117.13
2023-01-25T10:24:25.687Z,102107.41
2023-01-25T10:27:03.277Z,102111.69
2023-01-25T10:29:37.389Z,102108.78
2023-01-25T10:32:27.358Z,102101.41
2023-01-25T10:34:57.703Z,102100.97
2023-01-25T10:37:30.743Z,102099.13
2023-01-25T10:40:06.566Z,102100.41
2023-01-25T10:42:51.496Z,102090.88
2023-01-25T10:45:18.227Z,102085.28
2023-01-25T10:47:57.154Z,102086.44
2023-01-25T10:50:41.791Z,102079.25
2023-01-25T10:53:44.177Z,102075.38
2023-01-25T10:56:10.753Z,102071.28
2023-01-25T10:58:40.044Z,102069.50
2023-01-25T11:01:10.732Z,102054.09
2023-01-25T11:03:46.362Z,102050.28
2023-01-25T11:06:12.994Z,102053.63
2023-01-25T11:08:44.590Z,102055.19
2023-01-25T11:11:35.116Z,102048.22
2023-01-25T11:14:14.979Z,102044.09
2023-01-25T11:16:46.244Z,102032.91
2023-01-25T11:19:39.553Z,102027.91
2023-01-25T11:22:20.188Z,102017.78
2023-01-25T11:24:47.394Z,102021.03
2023-01-25T11:27:23.360Z,102016.81
2023-01-25T11:30:05.391Z,102017.09
2023-01-25T11:32:32.859Z,102013.53
2023-01-25T11:34:59.863Z,102010.97
2023-01-25T11:37:32.362Z,102000.56
2023-01-25T11:40:22.384Z,101994.06
2023-01-25T11:43:05.944Z,101988.75
2023-01-25T11:46:16.542Z,101983.25
2023-01-25T11:48:47.057Z,101979.84
2023-01-25T11:51:23.472Z,101971.78
2023-01-25T11:54:26.672Z,101970.69
2023-01-25T11:57:25.237Z,101968.66
2023-01-25T12:00:16.297Z,101959.88
2023-01-25T12:02:55.844Z,101961.88
2023-01-25T12:05:25.697Z,101954.38
2023-01-25T12:08:12.713Z,101945.25
2023-01-25T12:10:48.230Z,101940.41
2023-01-25T12:13:36.125Z,101936.00
2023-01-25T12:16:15.760Z,101935.66
2023-01-25T12:18:53.369Z,101934.34
2023-01-25T12:21:44.912Z,101930.97
2023-01-25T12:24:37.617Z,101915.63
2023-01-25T12:27:19.312Z,101909.69
2023-01-25T12:30:13.784Z,101901.03
2023-01-25T12:32:47.534Z,101893.91
2023-01-25T12:35:34.267Z,101887.56
2023-01-25T12:38:04.794Z,101876.63
2023-01-25T12:40:49.668Z,101869.38
2023-01-25T12:43:27.330Z,101862.78
2023-01-25T12:45:57.544Z,101869.13
2023-01-25T12:48:35.149Z,101861.63
2023-01-25T12:51:02.155Z,101848.31
2023-01-25T12:53:40.520Z,101859.31
2023-01-25T12:56:09.752Z,101846.16
2023-01-25T12:59:19.213Z,101842.50
2023-01-25T13:02:01.137Z,101837.16
2023-01-25T13:04:46.248Z,101839.50
2023-01-25T13:07:15.559Z,101831.34
2023-01-25T13:09:55.950Z,101823.53
2023-01-25T13:12:24.486Z,101816.38
2023-01-25T13:14:51.602Z,101827.84
2023-01-25T13:17:34.257Z,101827.69
2023-01-25T13:20:23.214Z,101829.66
2023-01-25T13:22:51.971Z,101830.84
2023-01-25T13:25:23.412Z,101835.50
2023-01-25T13:27:50.149Z,101825.34
2023-01-25T13:30:25.787Z,101814.50
2023-01-25T13:32:55.580Z,101817.69
2023-01-25T13:35:26.769Z,101822.19
2023-01-25T13:38:03.655Z,101808.88
2023-01-25T13:40:39.077Z,101805.06
2023-01-25T13:43:11.933Z,101802.41
2023-01-25T13:45:41.390Z,101789.06
2023-01-25T13:48:13.716Z,101783.28
2023-01-25T13:50:47.208Z,101785.94
2023-01-25T13:53:19.021Z,101780.94
2023-01-25T13:55:48.677Z,101789.44
2023-01-25T13:58:30.884Z,101782.59
2023-01-25T14:01:00.434Z,101772.97
2023-01-25T14:03:30.155Z,101764.63
2023-01-25T14:06:02.498Z,101749.84
2023-01-25T14:08:30.334Z,101752.19
2023-01-25T14:10:57.887Z,101760.66
2023-01-25T14:13:24.794Z,101757.00
2023-01-25T14:16:04.220Z,101756.34
2023-01-25T14:18:33.245Z,101751.34
2023-01-25T14:21:10.168Z,101750.19
2023-01-25T14:23:36.781Z,101744.69
2023-01-25T14:26:03.679Z,101750.00
2023-01-25T14:28:30.849Z,101740.88
2023-01-25T14:31:01.381Z,101738.22
2023-01-25T14:33:33.304Z,101728.06
2023-01-25T14:36:16.308Z,101728.22
2023-01-25T14:38:50.790Z,101714.44
2023-01-25T14:41:33.688Z,101713.09
2023-01-25T14:44:10.450Z,101718.06
2023-01-25T14:46:38.544Z,101711.75
2023-01-25T14:49:25.600Z,101709.94
2023-01-25T14:52:13.049Z,101701.63
2023-01-25T14:54:51.246Z,101711.75
2023-01-25T14:57:36.487Z,101704.63
2023-01-25T15:00:09.096Z,101701.78
2023-01-25T15:02:44.483Z,101707.13
2023-01-25T15:05:27.319Z,101710.94
2023-01-25T15:07:55.234Z,101699.47
2023-01-25T15:10:27.237Z,101699.28
2023-01-25T15:13:11.629Z,101692.31
2023-01-25T15:15:55.272Z,101682.69
2023-01-25T15:18:40.547Z,101679.84
2023-01-25T15:21:33.884Z,101671.69
2023-01-25T15:24:06.346Z,101666.19
2023-01-25T15:26:34.883Z,101652.94
2023-01-25T15:29:23.738Z,101650.25
2023-01-25T15:31:51.265Z,101647.59
2023-01-25T15:34:24.980Z,101647.44
2023-01-25T15:36:51.729Z,101645.59
2023-01-25T15:39:19.684Z,101648.25
2023-01-25T15:41:47.666Z,101649.25
2023-01-25T15:44:14.908Z,101638.97
2023-01-25T15:46:45.292Z,101638.97
2023-01-25T15:49:20.933Z,101635.31
2023-01-25T15:51:47.545Z,101632.16
2023-01-25T15:54:14.223Z,101636.97
2023-01-25T15:56:43.114Z,101636.63
2023-01-25T15:59:16.240Z,101634.97
2023-01-25T16:01:43.012Z,101629.31
2023-01-25T16:04:10.870Z,101631.94
2023-01-25T16:06:45.710Z,101631.94
2023-01-25T16:09:29.835Z,101626.13
2023-01-25T16:11:58.727Z,101627.97
2023-01-25T16:14:30.286Z,101628.25
2023-01-25T16:16:59.957Z,101625.47
2023-01-25T16:19:26.791Z,101623.16
2023-01-25T16:21:53.406Z,101626.66
2023-01-25T16:24:20.152Z,101630.66
2023-01-25T16:26:53.327Z,101629.50
2023-01-25T16:29:20.435Z,101627.16
2023-01-25T16:31:47.150Z,101619.00
2023-01-25T16:34:14.030Z,101625.81
2023-01-25T16:36:41.231Z,101618.19
2023-01-25T16:39:14.917Z,101623.78
2023-01-25T16:41:41.524Z,101620.50
2023-01-25T16:44:08.155Z,101624.78
2023-01-25T16:46:34.793Z,101620.97
2023-01-25T16:49:04.274Z,101619.97
2023-01-25T16:51:32.335Z,101618.34
2023-01-25T16:53:59.321Z,101614.34
2023-01-25T16:56:28.611Z,101617.84
2023-01-25T16:58:58.020Z,101608.38
2023-01-25T17:01:25.115Z,101606.88
2023-01-25T17:03:51.935Z,101607.03
2023-01-25T17:06:25.374Z,101604.38
2023-01-25T17:08:52.913Z,101599.56
2023-01-25T17:11:19.657Z,101600.38
2023-01-25T17:13:54.418Z,101599.91
2023-01-25T17:16:22.913Z,101599.56
2023-01-25T17:18:54.909Z,101595.44
2023-01-25T17:21:22.541Z,101599.72
2023-01-25T17:23:49.776Z,101595.41
2023-01-25T17:26:18.334Z,101588.91
2023-01-25T17:28:45.750Z,101601.56
2023-01-25T17:31:16.537Z,101589.25
2023-01-25T17:33:43.711Z,101584.28
2023-01-25T17:36:10.474Z,101586.09
2023-01-25T17:38:37.100Z,101580.28
2023-01-25T17:41:05.546Z,101584.44
2023-01-25T17:43:34.506Z,101571.47
2023-01-25T17:46:13.808Z,101575.97
2023-01-25T17:48:40.719Z,101573.47
2023-01-25T17:51:07.523Z,101564.63
2023-01-25T17:53:34.289Z,101564.31
2023-01-25T17:56:03.377Z,101559.34
2023-01-25T17:58:31.239Z,101557.34
2023-01-25T18:01:11.940Z,101557.69
2023-01-25T18:03:40.824Z,101547.22
2023-01-25T18:06:10.360Z,101550.22
2023-01-25T18:08:45.028Z,101548.72
2023-01-25T18:11:15.351Z,101545.22
2023-01-25T18:13:43.577Z,101548.06
2023-01-25T18:16:10.804Z,101549.22
2023-01-25T18:18:39.943Z,101542.09
2023-01-25T18:21:15.600Z,101537.25
2023-01-25T18:23:46.647Z,101529.78
2023-01-25T18:26:18.741Z,101538.44
2023-01-25T18:28:45.714Z,101527.94
2023-01-25T18:31:15.736Z,101528.59
2023-01-25T18:33:43.305Z,101528.41
2023-01-25T18:36:20.245Z,101526.78
2023-01-25T18:38:46.831Z,101519.16
2023-01-25T18:41:13.641Z,101517.97
2023-01-25T18:43:40.266Z,101513.84
2023-01-25T18:46:07.059Z,101508.84
2023-01-25T18:48:33.778Z,101512.31
2023-01-25T18:51:12.911Z,101513.66
2023-01-25T18:53:41.595Z,101514.97
2023-01-25T18:56:12.337Z,101514.66
2023-01-25T18:58:39.162Z,101502.84
2023-01-25T19:01:11.911Z,101503.03
2023-01-25T19:03:38.511Z,101503.22
2023-01-25T19:06:05.711Z,101504.06
2023-01-25T19:08:33.078Z,101506.06
2023-01-25T19:11:05.893Z,101496.13
2023-01-25T19:13:37.197Z,101502.72
2023-01-25T19:16:07.500Z,101491.44
2023-01-25T19:18:39.466Z,101493.56
2023-01-25T19:21:10.561Z,101487.78
2023-01-25T19:23:38.717Z,101491.75
2023-01-25T19:26:07.776Z,101490.44
2023-01-25T19:28:34.917Z,101484.25
2023-01-25T19:31:08.504Z,101483.75
2023-01-25T19:33:35.924Z,101492.41
2023-01-25T19:36:05.221Z,101485.94
2023-01-25T19:38:33.452Z,101482.28
2023-01-25T19:41:07.641Z,101481.94
2023-01-25T19:43:34.600Z,101481.63
2023-01-25T19:46:09.542Z,101483.16
2023-01-25T19:48:36.797Z,101472.50
2023-01-25T19:51:14.586Z,101477.66
2023-01-25T19:53:46.619Z,101469.84
2023-01-25T19:56:16.214Z,101462.22
2023-01-25T19:58:47.643Z,101456.25
2023-01-25T20:01:18.439Z,101455.88
2023-01-25T20:03:45.492Z,101446.94
2023-01-25T20:06:13.415Z,101447.25
2023-01-25T20:08:42.237Z,101448.25
2023-01-25T20:11:19.549Z,101450.44
2023-01-25T20:13:47.758Z,101447.91
2023-01-25T20:16:17.148Z,101445.25
2023-01-25T20:18:45.379Z,101441.28
2023-01-25T20:21:21.553Z,101440.28
2023-01-25T20:23:50.749Z,101432.31
2023-01-25T20:26:20.120Z,101419.66
2023-01-25T20:28:51.480Z,101423.03
2023-01-25T20:31:22.679Z,101421.31
2023-01-25T20:33:51.095Z,101412.88
2023-01-25T20:36:17.782Z,101417.56
2023-01-25T20:38:44.968Z,101415.34
2023-01-25T20:41:14.296Z,101415.88
2023-01-25T20:43:57.526Z,101413.41
2023-01-25T20:46:24.248Z,101405.06
2023-01-25T20:48:52.100Z,101404.91
2023-01-25T20:51:21.515Z,101394.44
2023-01-25T20:53:49.868Z,101393.63
2023-01-25T20:56:18.549Z,101397.41
2023-01-25T20:58:50.466Z,101397.94
2023-01-25T21:01:20.927Z,101401.06
2023-01-25T21:03:48.397Z,101398.28
2023-01-25T21:06:16.077Z,101401.41
2023-01-25T21:08:43.208Z,101398.28
2023-01-25T21:11:11.396Z,101401.41
2023-01-25T21:13:38.024Z,101385.16
2023-01-25T21:16:17.818Z,101380.63
2023-01-25T21:18:50.416Z,101385.13
2023-01-25T21:21:31.235Z,101381.16
2023-01-25T21:23:59.910Z,101390.44
2023-01-25T21:26:29.915Z,101388.31
2023-01-25T21:28:58.751Z,101387.00
2023-01-25T21:31:28.061Z,101387.81
2023-01-25T21:33:55.609Z,101385.81
2023-01-25T21:36:22.704Z,101382.69
2023-01-25T21:38:51.633Z,101389.66
2023-01-25T21:41:26.969Z,101381.34
2023-01-25T21:44:14.394Z,101383.47
2023-01-25T21:46:42.120Z,101382.69
2023-01-25T21:49:29.461Z,101376.56
2023-01-25T21:52:00.313Z,101378.25
2023-01-25T21:54:32.489Z,101374.53
2023-01-25T21:57:00.557Z,101363.97
2023-01-25T21:59:27.525Z,101361.97
2023-01-25T22:01:55.619Z,101366.63
2023-01-25T22:04:24.070Z,101362.31
2023-01-25T22:06:54.403Z,101358.00
2023-01-25T22:09:22.051Z,101356.47
2023-01-25T22:11:49.569Z,101353.81
2023-01-25T22:14:19.056Z,101351.97
2023-01-25T22:16:46.357Z,101359.13
2023-01-25T22:19:12.951Z,101355.47
2023-01-25T22:21:39.523Z,101348.28
2023-01-25T22:24:06.716Z,101342.94
2023-01-25T22:26:45.301Z,101347.31
2023-01-25T22:29:12.771Z,101352.28
2023-01-25T22:31:39.468Z,101353.81
2023-01-25T22:34:08.128Z,101352.63
2023-01-25T22:36:34.891Z,101341.72
2023-01-25T22:39:01.534Z,101335.22
2023-01-25T22:41:32.488Z,101338.03
2023-01-25T22:43:59.084Z,101336.41
2023-01-25T22:46:29.052Z,101330.78
2023-01-25T22:48:57.179Z,101325.78
2023-01-25T22:51:26.516Z,101328.78
2023-01-25T22:53:53.875Z,101315.81
2023-01-25T22:56:23.602Z,101310.00
2023-01-25T22:58:50.956Z,101296.25
2023-01-25T23:01:20.297Z,101304.91
2023-01-25T23:03:48.870Z,101297.91
2023-01-25T23:06:18.243Z,101293.25
2023-01-25T23:08:45.126Z,101293.94
2023-01-25T23:11:15.000Z,101289.47
2023-01-25T23:13:42.427Z,101266.06
2023-01-25T23:16:09.936Z,101273.53
2023-01-25T23:18:51.714Z,101272.16
2023-01-25T23:21:21.556Z,101263.72
2023-01-25T23:23:48.813Z,101263.75
2023-01-25T23:26:16.271Z,101260.78
2023-01-25T23:28:43.280Z,101254.59
2023-01-25T23:31:17.055Z,101249.28
2023-01-25T23:34:05.303Z,101245.63
2023-01-25T23:36:34.678Z,101245.81
2023-01-25T23:39:01.824Z,101244.47
2023-01-25T23:41:30.020Z,101237.50
2023-01-25T23:43:57.885Z,101239.50
2023-01-25T23:46:25.319Z,101222.38
2023-01-25T23:48:52.044Z,101221.72
2023-01-25T23:51:19.746Z,101224.09
2023-01-25T23:53:46.907Z,101220.06
2023-01-25T23:56:19.082Z,101222.91
2023-01-25T23:58:46.398Z,101225.25
